sensor_id;sensor_type;location;lat;lon;timestamp;temperature;humidity
47626;DHT22;33342;45.574;9.252;2022-12-07T00:01:17;8.10;99.90
47626;DHT22;33342;45.574;9.252;2022-12-07T00:03:46;8.10;99.90
47626;DHT22;33342;45.574;9.252;2022-12-07T00:06:15;8.00;99.90
47626;DHT22;33342;45.574;9.252;2022-12-07T00:08:42;8.00;99.90
47626;DHT22;33342;45.574;9.252;2022-12-07T00:11:20;8.00;99.90
47626;DHT22;33342;45.574;9.252;2022-12-07T00:13:55;7.90;99.90
47626;DHT22;33342;45.574;9.252;2022-12-07T00:16:25;7.90;99.90
47626;DHT22;33342;45.574;9.252;2022-12-07T00:18:52;7.90;99.90
47626;DHT22;33342;45.574;9.252;2022-12-07T00:21:24;8.00;99.90
47626;DHT22;33342;45.574;9.252;2022-12-07T00:23:53;8.00;99.90
47626;DHT22;33342;45.574;9.252;2022-12-07T00:26:22;8.00;99.90
47626;DHT22;33342;45.574;9.252;2022-12-07T00:28:52;8.00;99.90
47626;DHT22;33342;45.574;9.252;2022-12-07T00:31:21;8.00;99.90
47626;DHT22;33342;45.574;9.252;2022-12-07T00:33:49;8.00;99.90
47626;DHT22;33342;45.574;9.252;2022-12-07T00:36:21;8.00;99.90
47626;DHT22;33342;45.574;9.252;2022-12-07T00:38:54;8.00;99.90
47626;DHT22;33342;45.574;9.252;2022-12-07T00:41:23;8.00;99.90
47626;DHT22;33342;45.574;9.252;2022-12-07T00:43:51;8.00;99.90
47626;DHT22;33342;45.574;9.252;2022-12-07T00:46:20;8.00;99.90
47626;DHT22;33342;45.574;9.252;2022-12-07T00:48:48;7.90;99.90
47626;DHT22;33342;45.574;9.252;2022-12-07T00:51:18;7.90;99.90
47626;DHT22;33342;45.574;9.252;2022-12-07T00:53:46;7.90;99.90
47626;DHT22;33342;45.574;9.252;2022-12-07T00:56:19;7.90;99.90
47626;DHT22;33342;45.574;9.252;2022-12-07T00:58:54;7.90;99.90
47626;DHT22;33342;45.574;9.252;2022-12-07T01:01:23;7.90;99.90
47626;DHT22;33342;45.574;9.252;2022-12-07T01:03:51;7.90;99.90
47626;DHT22;33342;45.574;9.252;2022-12-07T01:06:20;7.90;99.90
47626;DHT22;33342;45.574;9.252;2022-12-07T01:08:47;7.80;99.90
47626;DHT22;33342;45.574;9.252;2022-12-07T01:11:17;7.80;99.90
47626;DHT22;33342;45.574;9.252;2022-12-07T01:13:46;7.70;99.90
47626;DHT22;33342;45.574;9.252;2022-12-07T01:16:15;7.70;99.90
47626;DHT22;33342;45.574;9.252;2022-12-07T01:18:46;7.70;99.90
47626;DHT22;33342;45.574;9.252;2022-12-07T01:21:17;7.70;99.90
47626;DHT22;33342;45.574;9.252;2022-12-07T01:23:45;7.70;99.90
47626;DHT22;33342;45.574;9.252;2022-12-07T01:26:14;7.70;99.90
47626;DHT22;33342;45.574;9.252;2022-12-07T01:28:42;7.70;99.90
47626;DHT22;33342;45.574;9.252;2022-12-07T01:31:14;7.70;99.90
47626;DHT22;33342;45.574;9.252;2022-12-07T01:33:44;7.70;99.90
47626;DHT22;33342;45.574;9.252;2022-12-07T01:36:17;7.70;99.90
47626;DHT22;33342;45.574;9.252;2022-12-07T01:38:45;7.70;99.90
47626;DHT22;33342;45.574;9.252;2022-12-07T01:41:14;7.70;99.90
47626;DHT22;33342;45.574;9.252;2022-12-07T01:44:20;7.70;99.90
47626;DHT22;33342;45.574;9.252;2022-12-07T01:47:04;7.60;99.90
47626;DHT22;33342;45.574;9.252;2022-12-07T01:52:14;7.60;99.90
47626;DHT22;33342;45.574;9.252;2022-12-07T01:54:44;7.50;99.90
47626;DHT22;33342;45.574;9.252;2022-12-07T01:57:14;7.60;99.90
47626;DHT22;33342;45.574;9.252;2022-12-07T01:59:42;7.60;99.90
47626;DHT22;33342;45.574;9.252;2022-12-07T02:02:31;7.60;99.90
47626;DHT22;33342;45.574;9.252;2022-12-07T02:05:02;7.60;99.90
47626;DHT22;33342;45.574;9.252;2022-12-07T02:07:31;7.60;99.90
47626;DHT22;33342;45.574;9.252;2022-12-07T02:10:20;7.60;99.90
47626;DHT22;33342;45.574;9.252;2022-12-07T02:13:19;7.60;99.90
47626;DHT22;33342;45.574;9.252;2022-12-07T02:21:21;7.60;99.90
47626;DHT22;33342;45.574;9.252;2022-12-07T02:31:37;7.60;99.90
47626;DHT22;33342;45.574;9.252;2022-12-07T02:34:18;7.60;99.90
47626;DHT22;33342;45.574;9.252;2022-12-07T02:36:52;7.60;99.90
47626;DHT22;33342;45.574;9.252;2022-12-07T02:39:34;7.60;99.90
47626;DHT22;33342;45.574;9.252;2022-12-07T02:42:12;7.60;99.90
47626;DHT22;33342;45.574;9.252;2022-12-07T02:44:41;7.60;99.90
47626;DHT22;33342;45.574;9.252;2022-12-07T02:47:12;7.60;99.90
47626;DHT22;33342;45.574;9.252;2022-12-07T02:49:40;7.60;99.90
47626;DHT22;33342;45.574;9.252;2022-12-07T02:52:08;7.60;99.90
47626;DHT22;33342;45.574;9.252;2022-12-07T02:54:35;7.60;99.90
47626;DHT22;33342;45.574;9.252;2022-12-07T03:05:09;7.60;99.90
47626;DHT22;33342;45.574;9.252;2022-12-07T03:18:19;7.50;99.90
47626;DHT22;33342;45.574;9.252;2022-12-07T03:20:48;7.50;99.90
47626;DHT22;33342;45.574;9.252;2022-12-07T03:23:18;7.50;99.90
47626;DHT22;33342;45.574;9.252;2022-12-07T03:25:48;7.50;99.90
47626;DHT22;33342;45.574;9.252;2022-12-07T03:28:24;7.50;99.90
47626;DHT22;33342;45.574;9.252;2022-12-07T03:31:06;7.40;99.90
47626;DHT22;33342;45.574;9.252;2022-12-07T03:33:42;7.40;99.90
47626;DHT22;33342;45.574;9.252;2022-12-07T03:36:35;7.40;99.90
47626;DHT22;33342;45.574;9.252;2022-12-07T03:41:35;7.40;99.90
47626;DHT22;33342;45.574;9.252;2022-12-07T03:44:11;7.40;99.90
47626;DHT22;33342;45.574;9.252;2022-12-07T03:46:55;7.40;99.90
47626;DHT22;33342;45.574;9.252;2022-12-07T03:55:23;7.40;99.90
47626;DHT22;33342;45.574;9.252;2022-12-07T03:57:54;7.40;99.90
47626;DHT22;33342;45.574;9.252;2022-12-07T04:00:22;7.40;99.90
47626;DHT22;33342;45.574;9.252;2022-12-07T04:02:52;7.40;99.90
47626;DHT22;33342;45.574;9.252;2022-12-07T04:05:19;7.40;99.90
47626;DHT22;33342;45.574;9.252;2022-12-07T04:07:46;7.40;99.90
47626;DHT22;33342;45.574;9.252;2022-12-07T04:10:13;7.40;99.90
47626;DHT22;33342;45.574;9.252;2022-12-07T04:12:40;7.30;99.90
47626;DHT22;33342;45.574;9.252;2022-12-07T04:15:08;7.40;99.90
47626;DHT22;33342;45.574;9.252;2022-12-07T04:17:35;7.40;99.90
47626;DHT22;33342;45.574;9.252;2022-12-07T04:20:03;7.40;99.90
47626;DHT22;33342;45.574;9.252;2022-12-07T04:22:31;7.40;99.90
47626;DHT22;33342;45.574;9.252;2022-12-07T04:24:58;7.40;99.90
47626;DHT22;33342;45.574;9.252;2022-12-07T04:27:25;7.40;99.90
47626;DHT22;33342;45.574;9.252;2022-12-07T04:29:52;7.40;99.90
47626;DHT22;33342;45.574;9.252;2022-12-07T04:32:19;7.40;99.90
47626;DHT22;33342;45.574;9.252;2022-12-07T04:34:46;7.30;99.90
47626;DHT22;33342;45.574;9.252;2022-12-07T04:37:19;7.40;99.90
47626;DHT22;33342;45.574;9.252;2022-12-07T04:39:46;7.40;99.90
47626;DHT22;33342;45.574;9.252;2022-12-07T04:42:13;7.40;99.90
47626;DHT22;33342;45.574;9.252;2022-12-07T04:44:40;7.40;99.90
47626;DHT22;33342;45.574;9.252;2022-12-07T04:47:07;7.30;99.90
47626;DHT22;33342;45.574;9.252;2022-12-07T04:49:34;7.30;99.90
47626;DHT22;33342;45.574;9.252;2022-12-07T04:52:02;7.30;99.90
47626;DHT22;33342;45.574;9.252;2022-12-07T04:54:29;7.30;99.90
47626;DHT22;33342;45.574;9.252;2022-12-07T04:56:56;7.30;99.90
47626;DHT22;33342;45.574;9.252;2022-12-07T04:59:23;7.20;99.90
47626;DHT22;33342;45.574;9.252;2022-12-07T05:01:50;7.20;99.90
47626;DHT22;33342;45.574;9.252;2022-12-07T05:04:17;7.20;99.90
47626;DHT22;33342;45.574;9.252;2022-12-07T05:06:44;7.20;99.90
47626;DHT22;33342;45.574;9.252;2022-12-07T05:09:11;7.20;99.90
47626;DHT22;33342;45.574;9.252;2022-12-07T05:11:38;7.20;99.90
47626;DHT22;33342;45.574;9.252;2022-12-07T05:14:18;7.20;99.90
47626;DHT22;33342;45.574;9.252;2022-12-07T05:16:47;7.20;99.90
47626;DHT22;33342;45.574;9.252;2022-12-07T05:19:16;7.20;99.90
47626;DHT22;33342;45.574;9.252;2022-12-07T05:21:43;7.20;99.90
47626;DHT22;33342;45.574;9.252;2022-12-07T05:24:12;7.10;99.90
47626;DHT22;33342;45.574;9.252;2022-12-07T05:26:39;7.10;99.90
47626;DHT22;33342;45.574;9.252;2022-12-07T05:29:07;7.10;99.90
47626;DHT22;33342;45.574;9.252;2022-12-07T05:31:34;7.10;99.90
47626;DHT22;33342;45.574;9.252;2022-12-07T05:34:01;7.10;99.90
47626;DHT22;33342;45.574;9.252;2022-12-07T05:36:28;7.10;99.90
47626;DHT22;33342;45.574;9.252;2022-12-07T05:38:58;7.10;99.90
47626;DHT22;33342;45.574;9.252;2022-12-07T05:41:25;7.10;99.90
47626;DHT22;33342;45.574;9.252;2022-12-07T05:44:10;7.10;99.90
47626;DHT22;33342;45.574;9.252;2022-12-07T05:46:37;7.00;99.90
47626;DHT22;33342;45.574;9.252;2022-12-07T05:49:04;7.00;99.90
47626;DHT22;33342;45.574;9.252;2022-12-07T05:51:31;7.00;99.90
47626;DHT22;33342;45.574;9.252;2022-12-07T05:53:58;7.00;99.90
47626;DHT22;33342;45.574;9.252;2022-12-07T05:56:26;7.00;99.90
47626;DHT22;33342;45.574;9.252;2022-12-07T05:58:54;6.90;99.90
47626;DHT22;33342;45.574;9.252;2022-12-07T06:01:40;7.00;99.90
47626;DHT22;33342;45.574;9.252;2022-12-07T06:04:07;7.00;99.90
47626;DHT22;33342;45.574;9.252;2022-12-07T06:06:34;7.00;99.90
47626;DHT22;33342;45.574;9.252;2022-12-07T06:09:02;7.00;99.90
47626;DHT22;33342;45.574;9.252;2022-12-07T06:11:30;7.00;99.90
47626;DHT22;33342;45.574;9.252;2022-12-07T06:14:15;7.00;99.90
47626;DHT22;33342;45.574;9.252;2022-12-07T06:16:42;7.00;99.90
47626;DHT22;33342;45.574;9.252;2022-12-07T06:19:10;7.00;99.90
47626;DHT22;33342;45.574;9.252;2022-12-07T06:21:37;7.00;99.90
47626;DHT22;33342;45.574;9.252;2022-12-07T06:24:04;7.00;99.90
47626;DHT22;33342;45.574;9.252;2022-12-07T06:26:31;7.00;99.90
47626;DHT22;33342;45.574;9.252;2022-12-07T06:28:58;7.00;99.90
47626;DHT22;33342;45.574;9.252;2022-12-07T06:31:26;7.00;99.90
47626;DHT22;33342;45.574;9.252;2022-12-07T06:34:00;7.00;99.90
47626;DHT22;33342;45.574;9.252;2022-12-07T06:36:28;7.00;99.90
47626;DHT22;33342;45.574;9.252;2022-12-07T06:38:55;7.00;99.90
47626;DHT22;33342;45.574;9.252;2022-12-07T06:41:22;6.90;99.90
47626;DHT22;33342;45.574;9.252;2022-12-07T06:43:50;6.90;99.90
47626;DHT22;33342;45.574;9.252;2022-12-07T06:46:22;6.90;99.90
47626;DHT22;33342;45.574;9.252;2022-12-07T06:48:49;6.90;99.90
47626;DHT22;33342;45.574;9.252;2022-12-07T06:51:17;6.90;99.90
47626;DHT22;33342;45.574;9.252;2022-12-07T06:53:44;6.90;99.90
47626;DHT22;33342;45.574;9.252;2022-12-07T06:56:11;6.90;99.90
47626;DHT22;33342;45.574;9.252;2022-12-07T06:58:39;6.90;99.90
47626;DHT22;33342;45.574;9.252;2022-12-07T07:01:17;6.90;99.90
47626;DHT22;33342;45.574;9.252;2022-12-07T07:03:45;6.90;99.90
47626;DHT22;33342;45.574;9.252;2022-12-07T07:06:13;6.90;99.90
47626;DHT22;33342;45.574;9.252;2022-12-07T07:08:41;6.90;99.90
47626;DHT22;33342;45.574;9.252;2022-12-07T07:11:08;6.90;99.90
47626;DHT22;33342;45.574;9.252;2022-12-07T07:13:36;6.90;99.90
47626;DHT22;33342;45.574;9.252;2022-12-07T07:16:03;6.90;99.90
47626;DHT22;33342;45.574;9.252;2022-12-07T07:18:31;6.90;99.90
47626;DHT22;33342;45.574;9.252;2022-12-07T07:20:58;6.90;99.90
47626;DHT22;33342;45.574;9.252;2022-12-07T07:23:25;6.90;99.90
47626;DHT22;33342;45.574;9.252;2022-12-07T07:25:52;6.80;99.90
47626;DHT22;33342;45.574;9.252;2022-12-07T07:28:19;6.90;99.90
47626;DHT22;33342;45.574;9.252;2022-12-07T07:30:47;6.90;99.90
47626;DHT22;33342;45.574;9.252;2022-12-07T07:33:14;6.90;99.90
47626;DHT22;33342;45.574;9.252;2022-12-07T07:35:41;6.90;99.90
47626;DHT22;33342;45.574;9.252;2022-12-07T07:38:08;6.90;99.90
47626;DHT22;33342;45.574;9.252;2022-12-07T07:40:36;6.90;99.90
47626;DHT22;33342;45.574;9.252;2022-12-07T07:43:03;6.90;99.90
47626;DHT22;33342;45.574;9.252;2022-12-07T07:45:30;6.90;99.90
47626;DHT22;33342;45.574;9.252;2022-12-07T07:47:57;6.90;99.90
47626;DHT22;33342;45.574;9.252;2022-12-07T07:50:24;6.90;99.90
47626;DHT22;33342;45.574;9.252;2022-12-07T07:52:51;6.90;99.90
47626;DHT22;33342;45.574;9.252;2022-12-07T07:55:19;6.90;99.90
47626;DHT22;33342;45.574;9.252;2022-12-07T07:57:46;6.90;99.90
47626;DHT22;33342;45.574;9.252;2022-12-07T08:00:20;6.90;99.90
47626;DHT22;33342;45.574;9.252;2022-12-07T08:02:48;6.90;99.90
47626;DHT22;33342;45.574;9.252;2022-12-07T08:05:15;7.00;99.90
47626;DHT22;33342;45.574;9.252;2022-12-07T08:07:42;7.00;99.90
47626;DHT22;33342;45.574;9.252;2022-12-07T08:10:11;7.00;99.90
47626;DHT22;33342;45.574;9.252;2022-12-07T08:12:42;7.00;99.90
47626;DHT22;33342;45.574;9.252;2022-12-07T08:15:30;7.00;99.90
47626;DHT22;33342;45.574;9.252;2022-12-07T08:17:58;7.00;99.90
47626;DHT22;33342;45.574;9.252;2022-12-07T08:20:25;7.00;99.90
47626;DHT22;33342;45.574;9.252;2022-12-07T08:22:52;7.00;99.90
47626;DHT22;33342;45.574;9.252;2022-12-07T08:25:20;7.10;99.90
47626;DHT22;33342;45.574;9.252;2022-12-07T08:27:49;7.10;99.90
47626;DHT22;33342;45.574;9.252;2022-12-07T08:30:17;7.00;99.90
47626;DHT22;33342;45.574;9.252;2022-12-07T08:32:45;7.10;99.90
47626;DHT22;33342;45.574;9.252;2022-12-07T08:35:13;7.10;99.90
47626;DHT22;33342;45.574;9.252;2022-12-07T08:37:41;7.10;99.90
47626;DHT22;33342;45.574;9.252;2022-12-07T08:40:09;7.10;99.90
47626;DHT22;33342;45.574;9.252;2022-12-07T08:42:36;7.10;99.90
47626;DHT22;33342;45.574;9.252;2022-12-07T08:45:09;7.10;99.90
47626;DHT22;33342;45.574;9.252;2022-12-07T08:47:40;7.10;99.90
47626;DHT22;33342;45.574;9.252;2022-12-07T08:50:09;7.10;99.90
47626;DHT22;33342;45.574;9.252;2022-12-07T08:52:38;7.10;99.90
47626;DHT22;33342;45.574;9.252;2022-12-07T08:55:07;7.10;99.90
47626;DHT22;33342;45.574;9.252;2022-12-07T08:57:36;7.10;99.90
47626;DHT22;33342;45.574;9.252;2022-12-07T09:00:04;7.10;99.90
47626;DHT22;33342;45.574;9.252;2022-12-07T09:02:32;7.00;99.90
47626;DHT22;33342;45.574;9.252;2022-12-07T09:04:59;7.10;99.90
47626;DHT22;33342;45.574;9.252;2022-12-07T09:07:26;7.10;99.90
47626;DHT22;33342;45.574;9.252;2022-12-07T09:09:53;7.10;99.90
47626;DHT22;33342;45.574;9.252;2022-12-07T09:12:20;7.10;99.90
47626;DHT22;33342;45.574;9.252;2022-12-07T09:14:47;7.20;99.90
47626;DHT22;33342;45.574;9.252;2022-12-07T09:17:14;7.20;99.90
47626;DHT22;33342;45.574;9.252;2022-12-07T09:19:41;7.20;99.90
47626;DHT22;33342;45.574;9.252;2022-12-07T09:22:09;7.20;99.90
47626;DHT22;33342;45.574;9.252;2022-12-07T09:24:36;7.30;99.90
47626;DHT22;33342;45.574;9.252;2022-12-07T09:27:03;7.30;99.90
47626;DHT22;33342;45.574;9.252;2022-12-07T09:29:30;7.30;99.90
47626;DHT22;33342;45.574;9.252;2022-12-07T09:31:57;7.30;99.90
47626;DHT22;33342;45.574;9.252;2022-12-07T09:34:24;7.30;99.90
47626;DHT22;33342;45.574;9.252;2022-12-07T09:36:53;7.40;99.90
47626;DHT22;33342;45.574;9.252;2022-12-07T09:39:20;7.40;99.90
47626;DHT22;33342;45.574;9.252;2022-12-07T09:41:47;7.40;99.90
47626;DHT22;33342;45.574;9.252;2022-12-07T09:44:24;7.40;99.90
47626;DHT22;33342;45.574;9.252;2022-12-07T09:46:51;7.50;99.90
47626;DHT22;33342;45.574;9.252;2022-12-07T09:49:21;7.50;99.90
47626;DHT22;33342;45.574;9.252;2022-12-07T09:52:00;7.50;99.90
47626;DHT22;33342;45.574;9.252;2022-12-07T09:54:29;7.50;99.90
47626;DHT22;33342;45.574;9.252;2022-12-07T09:56:57;7.60;99.90
47626;DHT22;33342;45.574;9.252;2022-12-07T09:59:25;7.60;99.90
47626;DHT22;33342;45.574;9.252;2022-12-07T10:01:52;7.60;99.90
47626;DHT22;33342;45.574;9.252;2022-12-07T10:04:25;7.60;99.90
47626;DHT22;33342;45.574;9.252;2022-12-07T10:06:52;7.60;99.90
47626;DHT22;33342;45.574;9.252;2022-12-07T10:09:21;7.70;99.90
47626;DHT22;33342;45.574;9.252;2022-12-07T10:12:09;7.70;99.90
47626;DHT22;33342;45.574;9.252;2022-12-07T10:14:52;7.70;99.90
47626;DHT22;33342;45.574;9.252;2022-12-07T10:17:39;7.80;99.90
47626;DHT22;33342;45.574;9.252;2022-12-07T10:20:23;7.80;99.90
47626;DHT22;33342;45.574;9.252;2022-12-07T10:25:30;7.90;99.90
47626;DHT22;33342;45.574;9.252;2022-12-07T10:28:00;8.00;99.90
47626;DHT22;33342;45.574;9.252;2022-12-07T10:30:27;8.00;99.90
47626;DHT22;33342;45.574;9.252;2022-12-07T10:32:55;8.00;99.90
47626;DHT22;33342;45.574;9.252;2022-12-07T10:35:26;8.00;99.90
47626;DHT22;33342;45.574;9.252;2022-12-07T10:37:55;8.10;99.90
47626;DHT22;33342;45.574;9.252;2022-12-07T10:40:24;8.10;99.90
47626;DHT22;33342;45.574;9.252;2022-12-07T10:43:20;8.20;99.90
47626;DHT22;33342;45.574;9.252;2022-12-07T10:48:45;8.20;99.90
47626;DHT22;33342;45.574;9.252;2022-12-07T10:59:39;8.30;99.90
47626;DHT22;33342;45.574;9.252;2022-12-07T11:08:05;8.40;99.90
47626;DHT22;33342;45.574;9.252;2022-12-07T11:10:44;8.40;99.90
47626;DHT22;33342;45.574;9.252;2022-12-07T11:21:57;8.40;99.90
47626;DHT22;33342;45.574;9.252;2022-12-07T11:27:22;8.40;99.90
47626;DHT22;33342;45.574;9.252;2022-12-07T11:30:11;8.50;99.90
47626;DHT22;33342;45.574;9.252;2022-12-07T11:38:28;8.60;99.90
47626;DHT22;33342;45.574;9.252;2022-12-07T11:41:01;8.60;99.90
47626;DHT22;33342;45.574;9.252;2022-12-07T11:44:07;8.60;99.90
47626;DHT22;33342;45.574;9.252;2022-12-07T11:46:49;8.60;99.90
47626;DHT22;33342;45.574;9.252;2022-12-07T11:49:23;8.60;99.90
47626;DHT22;33342;45.574;9.252;2022-12-07T11:51:55;8.70;99.90
47626;DHT22;33342;45.574;9.252;2022-12-07T11:54:28;8.70;99.90
47626;DHT22;33342;45.574;9.252;2022-12-07T11:57:01;8.70;99.90
47626;DHT22;33342;45.574;9.252;2022-12-07T11:59:39;8.80;99.90
47626;DHT22;33342;45.574;9.252;2022-12-07T12:02:20;8.80;99.90
47626;DHT22;33342;45.574;9.252;2022-12-07T12:05:03;8.80;99.90
47626;DHT22;33342;45.574;9.252;2022-12-07T12:07:33;8.80;99.90
47626;DHT22;33342;45.574;9.252;2022-12-07T12:10:51;8.80;99.90
47626;DHT22;33342;45.574;9.252;2022-12-07T12:19:04;8.90;99.90
47626;DHT22;33342;45.574;9.252;2022-12-07T12:21:38;9.00;99.90
47626;DHT22;33342;45.574;9.252;2022-12-07T12:24:22;9.00;99.90
47626;DHT22;33342;45.574;9.252;2022-12-07T12:26:54;9.00;99.90
47626;DHT22;33342;45.574;9.252;2022-12-07T12:29:32;9.00;99.90
47626;DHT22;33342;45.574;9.252;2022-12-07T12:32:17;9.10;99.90
47626;DHT22;33342;45.574;9.252;2022-12-07T12:42:50;9.10;99.90
47626;DHT22;33342;45.574;9.252;2022-12-07T12:45:33;9.20;99.90
47626;DHT22;33342;45.574;9.252;2022-12-07T12:48:01;9.20;99.90
47626;DHT22;33342;45.574;9.252;2022-12-07T12:50:30;9.20;99.90
47626;DHT22;33342;45.574;9.252;2022-12-07T12:53:16;9.20;99.90
47626;DHT22;33342;45.574;9.252;2022-12-07T12:58:39;9.30;99.90
47626;DHT22;33342;45.574;9.252;2022-12-07T13:01:32;9.40;99.90
47626;DHT22;33342;45.574;9.252;2022-12-07T13:04:00;9.50;99.90
47626;DHT22;33342;45.574;9.252;2022-12-07T13:08:57;9.80;99.90
47626;DHT22;33342;45.574;9.252;2022-12-07T13:11:31;10.10;99.90
47626;DHT22;33342;45.574;9.252;2022-12-07T13:17:04;10.90;99.90
47626;DHT22;33342;45.574;9.252;2022-12-07T13:20:03;11.60;99.90
47626;DHT22;33342;45.574;9.252;2022-12-07T13:28:01;12.60;99.90
47626;DHT22;33342;45.574;9.252;2022-12-07T13:30:29;12.80;99.90
47626;DHT22;33342;45.574;9.252;2022-12-07T13:32:58;12.90;99.90
47626;DHT22;33342;45.574;9.252;2022-12-07T13:35:34;12.80;99.90
47626;DHT22;33342;45.574;9.252;2022-12-07T13:38:02;12.60;99.90
47626;DHT22;33342;45.574;9.252;2022-12-07T13:40:30;12.50;99.90
47626;DHT22;33342;45.574;9.252;2022-12-07T13:43:02;12.30;99.90
47626;DHT22;33342;45.574;9.252;2022-12-07T13:45:32;12.20;99.90
47626;DHT22;33342;45.574;9.252;2022-12-07T13:48:31;12.00;99.90
47626;DHT22;33342;45.574;9.252;2022-12-07T13:51:01;11.90;99.90
47626;DHT22;33342;45.574;9.252;2022-12-07T13:53:29;11.90;99.90
47626;DHT22;33342;45.574;9.252;2022-12-07T13:56:01;11.90;99.90
47626;DHT22;33342;45.574;9.252;2022-12-07T13:58:31;11.90;99.90
47626;DHT22;33342;45.574;9.252;2022-12-07T14:00:59;12.00;99.90
47626;DHT22;33342;45.574;9.252;2022-12-07T14:03:30;12.10;99.90
47626;DHT22;33342;45.574;9.252;2022-12-07T14:08:34;12.40;99.90
47626;DHT22;33342;45.574;9.252;2022-12-07T14:11:01;12.60;99.90
47626;DHT22;33342;45.574;9.252;2022-12-07T14:13:35;12.90;99.90
47626;DHT22;33342;45.574;9.252;2022-12-07T14:16:30;13.20;99.90
47626;DHT22;33342;45.574;9.252;2022-12-07T14:18:59;13.30;99.90
47626;DHT22;33342;45.574;9.252;2022-12-07T14:21:28;13.50;99.90
47626;DHT22;33342;45.574;9.252;2022-12-07T14:24:16;13.70;99.90
47626;DHT22;33342;45.574;9.252;2022-12-07T14:26:48;13.80;99.90
47626;DHT22;33342;45.574;9.252;2022-12-07T14:29:31;14.00;99.90
47626;DHT22;33342;45.574;9.252;2022-12-07T14:32:14;14.10;99.90
47626;DHT22;33342;45.574;9.252;2022-12-07T14:35:10;14.20;99.90
47626;DHT22;33342;45.574;9.252;2022-12-07T14:37:39;14.30;99.90
47626;DHT22;33342;45.574;9.252;2022-12-07T14:40:07;14.30;99.90
47626;DHT22;33342;45.574;9.252;2022-12-07T14:42:35;14.30;99.90
47626;DHT22;33342;45.574;9.252;2022-12-07T14:45:02;14.20;99.90
47626;DHT22;33342;45.574;9.252;2022-12-07T14:47:30;14.10;99.90
47626;DHT22;33342;45.574;9.252;2022-12-07T14:50:19;14.10;99.90
47626;DHT22;33342;45.574;9.252;2022-12-07T14:52:54;14.00;99.90
47626;DHT22;33342;45.574;9.252;2022-12-07T14:55:42;13.90;99.90
47626;DHT22;33342;45.574;9.252;2022-12-07T14:58:14;13.70;99.90
47626;DHT22;33342;45.574;9.252;2022-12-07T15:00:42;13.40;99.90
47626;DHT22;33342;45.574;9.252;2022-12-07T15:03:10;13.00;99.90
47626;DHT22;33342;45.574;9.252;2022-12-07T15:05:37;12.70;99.90
47626;DHT22;33342;45.574;9.252;2022-12-07T15:08:05;12.40;99.90
47626;DHT22;33342;45.574;9.252;2022-12-07T15:10:34;12.10;99.90
47626;DHT22;33342;45.574;9.252;2022-12-07T15:13:03;11.90;99.90
47626;DHT22;33342;45.574;9.252;2022-12-07T15:15:51;11.70;99.90
47626;DHT22;33342;45.574;9.252;2022-12-07T15:18:21;11.50;99.90
47626;DHT22;33342;45.574;9.252;2022-12-07T15:20:48;11.30;99.90
47626;DHT22;33342;45.574;9.252;2022-12-07T15:23:15;11.20;99.90
47626;DHT22;33342;45.574;9.252;2022-12-07T15:25:44;11.00;99.90
47626;DHT22;33342;45.574;9.252;2022-12-07T15:28:11;10.80;99.90
47626;DHT22;33342;45.574;9.252;2022-12-07T15:30:40;10.70;99.90
47626;DHT22;33342;45.574;9.252;2022-12-07T15:33:07;10.50;99.90
47626;DHT22;33342;45.574;9.252;2022-12-07T15:35:39;10.50;99.90
47626;DHT22;33342;45.574;9.252;2022-12-07T15:38:06;10.30;99.90
47626;DHT22;33342;45.574;9.252;2022-12-07T15:40:34;10.20;99.90
47626;DHT22;33342;45.574;9.252;2022-12-07T15:43:02;10.10;99.90
47626;DHT22;33342;45.574;9.252;2022-12-07T15:45:29;10.00;99.90
47626;DHT22;33342;45.574;9.252;2022-12-07T15:47:56;9.90;99.90
47626;DHT22;33342;45.574;9.252;2022-12-07T15:50:43;9.80;99.90
47626;DHT22;33342;45.574;9.252;2022-12-07T15:53:10;9.80;99.90
47626;DHT22;33342;45.574;9.252;2022-12-07T15:55:41;9.70;99.90
47626;DHT22;33342;45.574;9.252;2022-12-07T15:58:08;9.60;99.90
47626;DHT22;33342;45.574;9.252;2022-12-07T16:00:35;9.60;99.90
47626;DHT22;33342;45.574;9.252;2022-12-07T16:03:02;9.60;99.90
47626;DHT22;33342;45.574;9.252;2022-12-07T16:05:29;9.50;99.90
47626;DHT22;33342;45.574;9.252;2022-12-07T16:07:56;9.50;99.90
47626;DHT22;33342;45.574;9.252;2022-12-07T16:10:24;9.40;99.90
47626;DHT22;33342;45.574;9.252;2022-12-07T16:12:51;9.30;99.90
47626;DHT22;33342;45.574;9.252;2022-12-07T16:15:18;9.30;99.90
47626;DHT22;33342;45.574;9.252;2022-12-07T16:17:51;9.30;99.90
47626;DHT22;33342;45.574;9.252;2022-12-07T16:20:18;9.30;99.90
47626;DHT22;33342;45.574;9.252;2022-12-07T16:22:45;9.30;99.90
47626;DHT22;33342;45.574;9.252;2022-12-07T16:25:12;9.20;99.90
47626;DHT22;33342;45.574;9.252;2022-12-07T16:27:39;9.20;99.90
47626;DHT22;33342;45.574;9.252;2022-12-07T16:30:07;9.20;99.90
47626;DHT22;33342;45.574;9.252;2022-12-07T16:32:34;9.20;99.90
47626;DHT22;33342;45.574;9.252;2022-12-07T16:35:01;9.10;99.90
47626;DHT22;33342;45.574;9.252;2022-12-07T16:37:28;9.10;99.90
47626;DHT22;33342;45.574;9.252;2022-12-07T16:39:55;9.00;99.90
47626;DHT22;33342;45.574;9.252;2022-12-07T16:42:22;9.00;99.90
47626;DHT22;33342;45.574;9.252;2022-12-07T16:44:49;9.00;99.90
47626;DHT22;33342;45.574;9.252;2022-12-07T16:47:17;9.00;99.90
47626;DHT22;33342;45.574;9.252;2022-12-07T16:49:44;9.00;99.90
47626;DHT22;33342;45.574;9.252;2022-12-07T16:52:11;8.90;99.90
47626;DHT22;33342;45.574;9.252;2022-12-07T16:54:48;8.90;99.90
47626;DHT22;33342;45.574;9.252;2022-12-07T16:57:17;8.90;99.90
47626;DHT22;33342;45.574;9.252;2022-12-07T16:59:50;8.90;99.90
47626;DHT22;33342;45.574;9.252;2022-12-07T17:02:18;8.90;99.90
47626;DHT22;33342;45.574;9.252;2022-12-07T17:04:45;8.90;99.90
47626;DHT22;33342;45.574;9.252;2022-12-07T17:07:12;8.90;99.90
47626;DHT22;33342;45.574;9.252;2022-12-07T17:09:39;8.80;99.90
47626;DHT22;33342;45.574;9.252;2022-12-07T17:12:06;8.80;99.90
47626;DHT22;33342;45.574;9.252;2022-12-07T17:14:33;8.80;99.90
47626;DHT22;33342;45.574;9.252;2022-12-07T17:17:19;8.80;99.90
47626;DHT22;33342;45.574;9.252;2022-12-07T17:19:46;8.80;99.90
47626;DHT22;33342;45.574;9.252;2022-12-07T17:22:13;8.70;99.90
47626;DHT22;33342;45.574;9.252;2022-12-07T17:24:40;8.70;99.90
47626;DHT22;33342;45.574;9.252;2022-12-07T17:27:07;8.60;99.90
47626;DHT22;33342;45.574;9.252;2022-12-07T17:29:35;8.60;99.90
47626;DHT22;33342;45.574;9.252;2022-12-07T17:32:02;8.60;99.90
47626;DHT22;33342;45.574;9.252;2022-12-07T17:34:29;8.60;99.90
47626;DHT22;33342;45.574;9.252;2022-12-07T17:36:56;8.50;99.90
47626;DHT22;33342;45.574;9.252;2022-12-07T17:39:23;8.60;99.90
47626;DHT22;33342;45.574;9.252;2022-12-07T17:41:51;8.50;99.90
47626;DHT22;33342;45.574;9.252;2022-12-07T17:44:36;8.50;99.90
47626;DHT22;33342;45.574;9.252;2022-12-07T17:47:03;8.50;99.90
47626;DHT22;33342;45.574;9.252;2022-12-07T17:49:32;8.40;99.90
47626;DHT22;33342;45.574;9.252;2022-12-07T17:51:59;8.40;99.90
47626;DHT22;33342;45.574;9.252;2022-12-07T17:54:44;8.40;99.90
47626;DHT22;33342;45.574;9.252;2022-12-07T17:57:11;8.30;99.90
47626;DHT22;33342;45.574;9.252;2022-12-07T17:59:38;8.30;99.90